Terminal Aerodrome Forecast
Issued by NWS Jackson, KY

Home | Current Version | Previous Version | Text Only | Print | Product List | Glossary On
Versions: 1 2 3 4 5 6 7 8 9 10 11 12 13 14 15 16 17 18 19 20
000
FTUS43 KJKL 020954 AAA
TAFJKL
TAF AMD
KJKL 020954Z 0210/0306 VRB03KT P6SM OVC021
     FM021800 24004KT 5SM RA BR VCTS OVC040CB
     FM022200 00000KT 5SM RA BR OVC025
     FM030300 00000KT P6SM VCSH OVC022=

USA.gov is the U.S. government's official web portal to all federal, state and local government web resources and services.